Time;durP1;ratioP1;P1;durP2;ratioP2;P2;SDS_P1;SDS_P2;PMS_P1;PMS_P2;Temp;Humidity;BMP_temperature;BMP_pressure;BME280_temperature;BME280_humidity;BME280_pressure;Samples;Min_cycle;Max_cycle;Signal;HPM_P1;HPM_P2
2023/01/07 00:01:32;;;;;;;20.02;14.15;;;9.50;99.90;;;;;;5076840;28;20040;-76
2023/01/07 00:03:59;;;;;;;21.40;15.95;;;9.60;99.90;;;;;;5059503;28;20036;-76
2023/01/07 00:06:27;;;;;;;21.17;14.38;;;9.60;99.90;;;;;;5058893;28;20055;-76
2023/01/07 00:08:55;;;;;;;23.27;16.52;;;9.60;99.90;;;;;;5076924;28;20043;-77
2023/01/07 00:11:23;;;;;;;22.88;16.02;;;9.70;99.90;;;;;;5077418;28;20351;-75
2023/01/07 00:13:52;;;;;;;24.73;15.77;;;9.80;99.90;;;;;;5076803;28;20044;-77
2023/01/07 00:16:20;;;;;;;22.88;17.42;;;9.80;99.90;;;;;;5076578;28;20564;-77
2023/01/07 00:18:47;;;;;;;23.48;16.30;;;9.80;99.90;;;;;;5059150;28;20102;-76
2023/01/07 00:21:15;;;;;;;22.50;15.63;;;9.80;99.90;;;;;;5076363;28;20127;-75
2023/01/07 00:23:42;;;;;;;21.83;14.70;;;9.90;99.90;;;;;;5058879;28;20052;-75
2023/01/07 00:26:14;;;;;;;24.98;15.80;;;9.90;99.90;;;;;;5076332;28;20127;-75
2023/01/07 00:28:41;;;;;;;18.63;14.43;;;9.90;99.90;;;;;;5074916;28;20472;-76
2023/01/07 00:31:13;;;;;;;20.38;15.65;;;10.00;99.90;;;;;;5076435;28;20052;-76
2023/01/07 00:36:18;;;;;;;21.55;15.27;;;10.10;99.90;;;;;;5076652;28;20053;-76
2023/01/07 00:38:43;;;;;;;20.10;14.48;;;10.00;99.90;;;;;;5076749;28;20051;-76
2023/01/07 00:41:10;;;;;;;20.50;15.73;;;10.10;99.90;;;;;;5076683;28;20040;-76
2023/01/07 00:43:36;;;;;;;20.30;14.35;;;10.10;99.90;;;;;;5058029;28;20469;-76
2023/01/07 00:46:01;;;;;;;18.58;14.52;;;10.20;99.90;;;;;;5076034;28;20048;-76
2023/01/07 00:48:27;;;;;;;20.52;14.93;;;10.20;99.90;;;;;;5076146;28;20036;-75
2023/01/07 00:50:53;;;;;;;19.27;14.65;;;10.20;99.90;;;;;;5076025;28;20041;-76
2023/01/07 00:53:20;;;;;;;19.33;13.70;;;10.30;99.90;;;;;;5076789;28;20040;-76
2023/01/07 00:55:50;;;;;;;18.92;13.77;;;10.30;99.90;;;;;;5058339;28;20157;-76
2023/01/07 00:58:22;;;;;;;18.30;14.00;;;10.30;99.90;;;;;;5075842;28;20044;-77
2023/01/07 01:00:48;;;;;;;19.17;14.07;;;10.30;99.90;;;;;;5057939;28;20040;-76
2023/01/07 01:03:14;;;;;;;20.70;13.35;;;10.30;99.90;;;;;;5076291;28;20044;-77
2023/01/07 01:05:41;;;;;;;16.60;13.43;;;10.30;99.90;;;;;;5057970;28;20094;-76
2023/01/07 01:08:08;;;;;;;17.20;13.98;;;10.40;99.90;;;;;;5075615;28;20083;-77
2023/01/07 01:10:33;;;;;;;17.17;15.32;;;10.40;99.90;;;;;;5075788;28;20098;-77
2023/01/07 01:12:59;;;;;;;20.23;15.13;;;10.40;99.90;;;;;;5058781;28;20404;-77
2023/01/07 01:15:26;;;;;;;18.33;14.57;;;10.40;99.90;;;;;;5075709;28;20068;-76
2023/01/07 01:17:52;;;;;;;18.63;15.60;;;10.50;99.90;;;;;;5058045;28;20425;-76
2023/01/07 01:20:18;;;;;;;16.92;12.40;;;10.50;99.90;;;;;;5075638;28;20106;-76
2023/01/07 01:22:44;;;;;;;16.75;14.25;;;10.50;99.90;;;;;;5075269;28;20133;-75
2023/01/07 01:25:10;;;;;;;15.90;12.93;;;10.50;99.90;;;;;;5057674;28;20033;-76
2023/01/07 01:27:37;;;;;;;19.05;14.85;;;10.50;99.90;;;;;;5057341;28;20101;-76
2023/01/07 01:30:04;;;;;;;16.83;14.57;;;10.50;99.90;;;;;;5057896;28;20132;-75
2023/01/07 01:32:29;;;;;;;17.85;14.48;;;10.60;99.90;;;;;;5057542;28;20105;-75
2023/01/07 01:34:55;;;;;;;15.50;12.30;;;10.60;99.90;;;;;;5057019;28;20130;-76
2023/01/07 01:37:21;;;;;;;17.70;13.05;;;10.70;99.90;;;;;;5057406;28;20115;-76
2023/01/07 01:39:47;;;;;;;15.77;13.65;;;10.60;99.90;;;;;;5075318;28;20043;-76
2023/01/07 01:42:23;;;;;;;18.17;13.95;;;10.60;99.90;;;;;;5075662;28;20453;-76
2023/01/07 01:44:57;;;;;;;19.75;13.82;;;10.70;99.90;;;;;;5057528;28;20378;-75
2023/01/07 01:47:49;;;;;;;18.83;14.23;;;10.70;99.90;;;;;;5075103;28;20469;-76
2023/01/07 01:50:23;;;;;;;14.57;12.18;;;10.70;99.90;;;;;;5058177;28;20048;-75
2023/01/07 01:52:51;;;;;;;19.70;14.55;;;10.70;99.90;;;;;;5075619;28;20041;-74
2023/01/07 01:55:21;;;;;;;16.88;13.68;;;10.70;99.90;;;;;;5074582;28;20052;-75
2023/01/07 01:57:50;;;;;;;16.55;12.43;;;10.70;99.90;;;;;;5074698;28;20036;-75
2023/01/07 02:00:16;;;;;;;19.15;12.77;;;10.80;99.90;;;;;;5074935;28;20536;-75
2023/01/07 02:02:53;;;;;;;17.55;13.02;;;10.80;99.90;;;;;;5075282;28;20079;-75
2023/01/07 02:05:20;;;;;;;16.10;13.02;;;10.80;99.90;;;;;;5074359;28;20044;-75
2023/01/07 02:07:45;;;;;;;16.58;12.95;;;10.70;99.90;;;;;;5074525;28;20040;-76
2023/01/07 02:10:11;;;;;;;16.65;12.98;;;10.80;99.90;;;;;;5056630;28;20044;-75
2023/01/07 02:12:57;;;;;;;19.55;13.57;;;10.80;99.90;;;;;;5074511;28;20461;-76
2023/01/07 02:15:40;;;;;;;15.45;13.05;;;10.90;99.90;;;;;;5057595;28;20056;-76
2023/01/07 02:18:31;;;;;;;16.33;13.95;;;10.80;99.90;;;;;;5074310;28;20041;-75
2023/01/07 02:21:22;;;;;;;16.08;13.02;;;10.80;99.90;;;;;;5057528;28;20052;-75
2023/01/07 02:24:07;;;;;;;16.50;13.68;;;10.80;99.90;;;;;;5056830;28;20041;-75
2023/01/07 02:27:08;;;;;;;16.20;13.48;;;10.90;99.90;;;;;;5074307;28;20049;-75
2023/01/07 02:29:58;;;;;;;17.35;12.63;;;10.90;99.90;;;;;;5073932;28;20060;-76
2023/01/07 02:33:00;;;;;;;15.38;13.52;;;10.90;99.90;;;;;;5074371;28;20048;-76
2023/01/07 02:36:03;;;;;;;19.27;12.63;;;10.90;99.90;;;;;;5074857;28;20047;-75
2023/01/07 02:38:49;;;;;;;17.80;13.90;;;10.90;99.90;;;;;;5056688;28;20070;-76
2023/01/07 02:41:34;;;;;;;18.33;13.23;;;11.00;99.90;;;;;;5073974;28;20128;-76
2023/01/07 02:44:11;;;;;;;17.48;13.23;;;11.00;99.90;;;;;;5056472;28;20074;-75
2023/01/07 02:46:44;;;;;;;17.80;12.55;;;10.90;99.90;;;;;;5074607;28;20347;-75
2023/01/07 02:49:14;;;;;;;17.20;13.80;;;11.00;99.90;;;;;;5039886;28;20083;-75
2023/01/07 02:51:40;;;;;;;16.30;12.95;;;10.90;99.90;;;;;;5073429;28;20059;-76
2023/01/07 02:54:20;;;;;;;17.63;12.95;;;11.00;99.90;;;;;;5056141;28;20044;-75
2023/01/07 02:57:19;;;;;;;18.25;12.65;;;11.00;99.90;;;;;;5057039;28;20048;-75
2023/01/07 03:00:00;;;;;;;18.13;13.23;;;11.00;99.90;;;;;;5057079;28;20126;-75
2023/01/07 03:02:53;;;;;;;14.75;12.75;;;11.00;99.90;;;;;;5074326;28;20111;-76
2023/01/07 03:06:10;;;;;;;15.43;11.73;;;11.00;99.90;;;;;;5056309;28;20044;-76
2023/01/07 03:09:07;;;;;;;17.30;12.38;;;11.00;99.90;;;;;;5002538;28;20477;-76
2023/01/07 03:11:58;;;;;;;17.17;13.40;;;11.00;99.90;;;;;;5054677;28;20113;-75
2023/01/07 03:14:33;;;;;;;14.40;11.93;;;11.10;99.90;;;;;;5074566;28;20457;-76
2023/01/07 03:17:03;;;;;;;18.05;13.02;;;11.00;99.90;;;;;;5073769;28;20469;-76
2023/01/07 03:19:36;;;;;;;13.30;11.85;;;11.10;99.90;;;;;;5074101;28;20045;-76
2023/01/07 03:22:06;;;;;;;17.73;13.32;;;11.10;99.90;;;;;;5073892;28;20040;-77
2023/01/07 03:24:32;;;;;;;15.95;12.15;;;11.10;99.90;;;;;;5073752;28;20048;-77
2023/01/07 03:27:01;;;;;;;14.40;11.70;;;11.10;99.90;;;;;;5073583;28;20062;-77
2023/01/07 03:29:30;;;;;;;16.23;12.10;;;11.10;99.90;;;;;;5055426;28;20055;-76
2023/01/07 03:32:31;;;;;;;15.05;12.25;;;11.00;99.90;;;;;;5056189;28;20059;-76
2023/01/07 03:34:57;;;;;;;15.73;12.15;;;11.10;99.90;;;;;;5020100;28;20098;-76
2023/01/07 03:37:26;;;;;;;18.25;12.35;;;11.00;99.90;;;;;;5073461;28;20044;-77
2023/01/07 03:39:52;;;;;;;16.27;12.57;;;11.00;99.90;;;;;;5074112;28;20052;-77
2023/01/07 03:42:38;;;;;;;15.57;12.93;;;11.00;99.90;;;;;;5039274;28;20530;-76
2023/01/07 03:45:06;;;;;;;14.70;12.73;;;11.00;99.90;;;;;;5056713;28;20111;-77
2023/01/07 03:47:32;;;;;;;18.00;12.20;;;11.00;99.90;;;;;;5073390;28;20033;-77
2023/01/07 03:49:58;;;;;;;16.65;12.07;;;11.00;99.90;;;;;;5056182;28;20407;-75
2023/01/07 03:52:23;;;;;;;13.50;11.13;;;11.00;99.90;;;;;;5073864;28;20033;-75
2023/01/07 03:54:49;;;;;;;15.43;12.45;;;11.00;99.90;;;;;;5073981;28;20090;-76
2023/01/07 03:57:15;;;;;;;16.30;12.82;;;11.00;99.90;;;;;;5055874;28;20048;-75
2023/01/07 03:59:40;;;;;;;12.95;11.63;;;11.00;99.90;;;;;;5073524;28;20037;-75
2023/01/07 04:02:06;;;;;;;16.25;11.82;;;11.00;99.90;;;;;;5074140;28;20040;-75
2023/01/07 04:04:32;;;;;;;17.45;12.65;;;11.00;99.90;;;;;;5059054;28;20056;-75
2023/01/07 04:06:57;;;;;;;17.10;12.98;;;11.00;99.90;;;;;;5058643;28;20032;-74
2023/01/07 04:09:23;;;;;;;14.02;12.07;;;11.00;99.90;;;;;;5076650;28;20174;-76
2023/01/07 04:11:49;;;;;;;17.02;12.80;;;11.00;99.90;;;;;;5076726;28;20037;-76
2023/01/07 04:14:14;;;;;;;17.35;12.85;;;11.00;99.90;;;;;;5076611;28;20053;-76
2023/01/07 04:16:40;;;;;;;15.80;12.35;;;11.00;99.90;;;;;;5058926;28;20047;-76
2023/01/07 04:19:06;;;;;;;14.23;11.55;;;11.00;99.90;;;;;;5077442;28;20131;-76
2023/01/07 04:21:32;;;;;;;15.55;12.05;;;11.00;99.90;;;;;;5059064;28;20047;-76
2023/01/07 04:23:58;;;;;;;14.18;11.45;;;11.00;99.90;;;;;;5076551;28;20123;-76
2023/01/07 04:26:23;;;;;;;14.85;12.50;;;11.00;99.90;;;;;;5076466;28;20123;-77
2023/01/07 04:28:49;;;;;;;17.85;11.52;;;11.00;99.90;;;;;;5076403;28;20092;-77
2023/01/07 04:31:14;;;;;;;14.40;11.93;;;11.00;99.90;;;;;;5059644;28;20052;-76
2023/01/07 04:33:40;;;;;;;15.80;11.63;;;11.00;99.90;;;;;;5076508;28;20457;-75
2023/01/07 04:36:06;;;;;;;13.88;11.00;;;11.00;99.90;;;;;;5058390;28;20040;-75
2023/01/07 04:38:32;;;;;;;15.20;10.77;;;11.00;99.90;;;;;;5058365;28;20041;-75
2023/01/07 04:40:57;;;;;;;15.20;11.00;;;11.00;99.90;;;;;;5075881;28;20040;-75
2023/01/07 04:43:23;;;;;;;17.38;12.85;;;10.90;99.90;;;;;;5058388;28;20167;-76
2023/01/07 04:45:49;;;;;;;14.85;10.75;;;11.00;99.90;;;;;;5058581;28;20051;-75
2023/01/07 04:48:15;;;;;;;12.82;9.30;;;11.00;99.90;;;;;;5075843;28;20044;-75
2023/01/07 04:50:41;;;;;;;15.35;12.00;;;11.00;99.90;;;;;;5075847;28;20040;-75
2023/01/07 04:53:07;;;;;;;14.15;10.32;;;11.00;99.90;;;;;;5075973;28;20043;-76
2023/01/07 04:55:32;;;;;;;12.30;10.38;;;11.00;99.90;;;;;;5076014;28;20378;-75
2023/01/07 04:57:58;;;;;;;12.95;10.05;;;11.00;99.90;;;;;;5075691;28;20124;-76
2023/01/07 05:00:24;;;;;;;15.48;11.15;;;10.90;99.90;;;;;;5076556;28;20044;-75
2023/01/07 05:02:49;;;;;;;16.42;10.68;;;10.90;99.90;;;;;;5075661;28;20489;-75
2023/01/07 05:05:15;;;;;;;13.77;10.63;;;10.90;99.90;;;;;;5075565;28;20362;-74
2023/01/07 05:07:41;;;;;;;11.45;9.52;;;10.90;99.90;;;;;;5057940;28;20055;-75
2023/01/07 05:10:07;;;;;;;15.45;10.10;;;10.90;99.90;;;;;;5041463;28;20072;-75
2023/01/07 05:12:34;;;;;;;13.60;10.43;;;10.90;99.90;;;;;;5075488;28;20101;-75
2023/01/07 05:15:04;;;;;;;10.43;9.40;;;10.90;99.90;;;;;;5075056;28;20046;-75
2023/01/07 05:17:30;;;;;;;11.82;9.32;;;10.90;99.90;;;;;;5058231;28;20422;-75
2023/01/07 05:19:55;;;;;;;13.50;10.13;;;10.90;99.90;;;;;;5058068;28;20044;-76
2023/01/07 05:22:21;;;;;;;15.02;9.90;;;10.90;99.90;;;;;;5082006;28;20044;-76
2023/01/07 05:24:47;;;;;;;11.00;9.25;;;10.90;99.90;;;;;;5092055;28;20050;-75
2023/01/07 05:27:12;;;;;;;14.25;9.88;;;10.80;99.90;;;;;;5089493;28;20516;-76
2023/01/07 05:29:38;;;;;;;12.73;9.02;;;10.90;99.90;;;;;;5082657;28;20053;-74
2023/01/07 05:32:04;;;;;;;10.98;9.10;;;10.80;99.90;;;;;;5086098;28;20075;-73
2023/01/07 05:34:30;;;;;;;10.05;8.30;;;10.80;99.90;;;;;;5085681;28;20108;-73
2023/01/07 05:36:56;;;;;;;13.50;8.63;;;10.80;99.90;;;;;;5086020;28;20076;-73
2023/01/07 05:39:21;;;;;;;9.98;8.38;;;10.80;99.90;;;;;;5084017;28;20133;-75
2023/01/07 05:41:47;;;;;;;10.90;9.40;;;10.80;99.90;;;;;;5059111;28;20040;-75
2023/01/07 05:44:13;;;;;;;10.27;8.38;;;10.90;99.90;;;;;;5076262;28;20124;-75
2023/01/07 05:46:38;;;;;;;11.07;8.32;;;10.80;99.90;;;;;;5076873;28;20040;-75
2023/01/07 05:49:04;;;;;;;12.65;9.18;;;10.80;99.90;;;;;;5075490;28;20538;-76
2023/01/07 05:51:30;;;;;;;10.52;9.13;;;10.80;99.90;;;;;;5074874;28;20083;-76
2023/01/07 05:53:55;;;;;;;13.70;8.93;;;10.90;99.90;;;;;;5057642;28;20037;-76
2023/01/07 05:56:21;;;;;;;13.15;8.85;;;10.80;99.90;;;;;;5043959;28;20036;-76
2023/01/07 05:58:47;;;;;;;9.43;8.00;;;10.90;99.90;;;;;;5079536;28;20044;-76
2023/01/07 06:01:12;;;;;;;10.00;8.23;;;10.90;99.90;;;;;;5074200;28;20040;-76
2023/01/07 06:03:39;;;;;;;8.75;7.75;;;10.90;99.90;;;;;;5074809;28;20044;-76
2023/01/07 06:06:07;;;;;;;9.32;7.15;;;10.90;99.90;;;;;;5074396;28;20101;-76
2023/01/07 06:08:37;;;;;;;10.82;7.65;;;10.90;99.90;;;;;;5075205;28;20047;-76
2023/01/07 06:11:05;;;;;;;10.85;8.85;;;10.90;99.90;;;;;;5074825;28;20049;-76
2023/01/07 06:13:31;;;;;;;9.75;7.25;;;10.90;99.90;;;;;;5074396;28;20055;-76
2023/01/07 06:16:01;;;;;;;8.85;8.05;;;10.90;99.90;;;;;;5075056;28;20047;-76
2023/01/07 06:18:27;;;;;;;8.95;7.32;;;10.90;99.90;;;;;;5074350;28;20170;-76
2023/01/07 06:20:52;;;;;;;10.10;7.35;;;10.90;99.90;;;;;;5074202;28;20123;-76
2023/01/07 06:23:18;;;;;;;11.13;7.90;;;10.80;99.90;;;;;;5074235;28;20044;-76
2023/01/07 06:25:44;;;;;;;10.98;6.85;;;10.90;99.90;;;;;;5073615;28;20043;-76
2023/01/07 06:28:09;;;;;;;8.30;7.45;;;10.90;99.90;;;;;;5074461;28;20048;-76
2023/01/07 06:30:35;;;;;;;9.43;7.07;;;10.90;99.90;;;;;;5073916;28;20058;-76
2023/01/07 06:33:01;;;;;;;10.20;7.85;;;10.90;99.90;;;;;;5056696;28;20045;-76
2023/01/07 06:35:26;;;;;;;10.25;6.97;;;10.90;99.90;;;;;;5074372;28;20475;-76
2023/01/07 06:37:52;;;;;;;12.75;7.50;;;10.90;99.90;;;;;;5074003;28;20435;-76
2023/01/07 06:40:18;;;;;;;9.38;7.38;;;10.90;99.90;;;;;;5073956;28;20044;-76
2023/01/07 06:42:43;;;;;;;10.52;7.70;;;10.90;99.90;;;;;;5074710;28;20102;-76
2023/01/07 06:45:10;;;;;;;12.70;8.00;;;10.90;99.90;;;;;;5057017;28;20499;-77
2023/01/07 06:47:35;;;;;;;8.13;7.32;;;10.90;99.90;;;;;;5073936;28;20040;-76
2023/01/07 06:50:01;;;;;;;7.93;6.50;;;10.90;99.90;;;;;;5074437;28;20040;-76
2023/01/07 06:52:27;;;;;;;9.80;7.95;;;10.80;99.90;;;;;;5073965;28;20123;-77
2023/01/07 06:54:53;;;;;;;7.90;7.10;;;10.80;99.90;;;;;;5073786;28;20040;-77
2023/01/07 06:57:18;;;;;;;8.63;7.13;;;10.80;99.90;;;;;;5055883;28;20036;-76
2023/01/07 06:59:44;;;;;;;7.35;5.97;;;10.80;99.90;;;;;;5074104;28;20044;-76
2023/01/07 07:02:36;;;;;;;8.13;6.72;;;10.80;99.90;;;;;;5073769;28;20466;-77
2023/01/07 07:05:01;;;;;;;7.30;5.78;;;10.80;99.90;;;;;;5069985;28;20052;-76
2023/01/07 07:07:27;;;;;;;7.75;6.43;;;10.80;99.90;;;;;;5056693;28;20469;-76
2023/01/07 07:09:53;;;;;;;8.48;6.57;;;10.80;99.90;;;;;;5056230;28;20056;-76
2023/01/07 07:12:19;;;;;;;14.05;7.82;;;10.80;99.90;;;;;;5073783;28;20048;-77
2023/01/07 07:14:44;;;;;;;7.43;5.75;;;10.80;99.90;;;;;;5056079;28;20530;-77
2023/01/07 07:17:10;;;;;;;9.15;5.53;;;10.80;99.90;;;;;;5073677;28;20032;-77
2023/01/07 07:19:36;;;;;;;8.65;6.97;;;10.80;99.90;;;;;;5056029;28;20087;-76
2023/01/07 07:22:01;;;;;;;11.65;6.45;;;10.80;99.90;;;;;;5074117;28;20091;-75
2023/01/07 07:24:27;;;;;;;5.93;5.38;;;10.80;99.90;;;;;;5073709;28;20098;-76
2023/01/07 07:26:53;;;;;;;9.00;6.95;;;10.80;99.90;;;;;;5073394;28;20072;-77
2023/01/07 07:29:18;;;;;;;8.68;6.65;;;10.90;99.90;;;;;;5055743;28;20060;-76
2023/01/07 07:31:44;;;;;;;7.65;5.97;;;10.90;99.90;;;;;;5056079;28;20132;-75
2023/01/07 07:34:10;;;;;;;7.32;5.82;;;10.90;99.90;;;;;;5073979;28;20051;-76
2023/01/07 07:36:36;;;;;;;6.90;5.80;;;10.90;99.90;;;;;;5074990;28;20052;-76
2023/01/07 07:39:07;;;;;;;9.38;5.78;;;10.90;99.90;;;;;;5078023;28;20124;-75
2023/01/07 07:41:33;;;;;;;7.47;5.78;;;10.90;99.90;;;;;;5077226;28;20072;-76
2023/01/07 07:43:59;;;;;;;6.72;5.63;;;10.90;99.90;;;;;;5059583;28;20045;-75
2023/01/07 07:46:24;;;;;;;9.23;5.93;;;10.90;99.90;;;;;;5077138;28;20053;-75
2023/01/07 07:48:50;;;;;;;6.22;5.30;;;10.80;99.90;;;;;;5077144;28;20036;-75
2023/01/07 07:51:16;;;;;;;9.00;6.80;;;10.90;99.90;;;;;;5076987;28;20076;-77
2023/01/07 07:53:42;;;;;;;6.55;5.28;;;10.90;99.90;;;;;;5077266;28;20036;-76
2023/01/07 07:56:08;;;;;;;8.68;6.57;;;10.90;99.90;;;;;;5060229;28;20048;-76
2023/01/07 07:58:34;;;;;;;7.40;5.00;;;10.90;99.90;;;;;;5077554;28;20071;-76
2023/01/07 08:01:00;;;;;;;7.43;5.85;;;10.80;99.90;;;;;;5076751;28;20134;-76
2023/01/07 08:03:26;;;;;;;7.80;4.97;;;10.80;99.90;;;;;;5076862;28;20599;-76
2023/01/07 08:05:51;;;;;;;5.22;4.72;;;10.80;99.90;;;;;;5076866;28;20427;-76
2023/01/07 08:08:18;;;;;;;6.90;4.85;;;10.80;99.90;;;;;;5076665;28;20047;-76
2023/01/07 08:10:43;;;;;;;6.50;5.85;;;10.80;99.90;;;;;;5077425;28;20066;-76
2023/01/07 08:13:09;;;;;;;5.90;4.53;;;10.80;99.90;;;;;;5077259;28;20477;-77
2023/01/07 08:15:36;;;;;;;6.43;5.07;;;10.80;99.90;;;;;;5077343;28;20055;-76
2023/01/07 08:18:04;;;;;;;9.35;4.65;;;10.80;99.90;;;;;;5076401;28;20052;-76
2023/01/07 08:20:31;;;;;;;7.10;4.97;;;10.80;99.90;;;;;;5076553;28;20051;-76
2023/01/07 08:22:59;;;;;;;6.90;4.43;;;10.80;99.90;;;;;;5075502;28;20048;-76
2023/01/07 08:25:25;;;;;;;4.85;4.30;;;10.80;99.90;;;;;;5077210;28;20045;-76
2023/01/07 08:27:53;;;;;;;7.07;4.28;;;10.70;99.90;;;;;;5076298;28;20479;-76
2023/01/07 08:30:19;;;;;;;7.15;4.40;;;10.80;99.90;;;;;;5076262;28;20096;-75
2023/01/07 08:32:45;;;;;;;8.32;4.60;;;10.70;99.90;;;;;;5059009;28;20072;-76
2023/01/07 08:35:10;;;;;;;9.95;4.30;;;10.80;99.90;;;;;;5076888;28;20489;-76
2023/01/07 08:37:36;;;;;;;4.03;3.63;;;10.80;99.90;;;;;;5058564;28;20048;-76
2023/01/07 08:40:02;;;;;;;6.00;4.05;;;10.80;99.90;;;;;;5076103;28;20044;-75
2023/01/07 08:42:29;;;;;;;5.22;3.97;;;10.80;99.90;;;;;;5076127;28;20045;-75
2023/01/07 08:44:55;;;;;;;4.82;3.50;;;10.80;99.90;;;;;;5076342;28;20104;-75
2023/01/07 08:47:21;;;;;;;7.70;3.60;;;10.80;99.90;;;;;;5076235;28;20040;-78
2023/01/07 08:49:46;;;;;;;4.95;3.40;;;10.80;99.90;;;;;;5057459;28;20044;-74
2023/01/07 08:52:12;;;;;;;6.10;4.07;;;10.80;99.90;;;;;;5058061;28;20117;-76
2023/01/07 08:54:38;;;;;;;3.72;3.15;;;10.90;99.90;;;;;;5076522;28;20040;-75
2023/01/07 08:57:03;;;;;;;4.13;3.72;;;11.00;99.90;;;;;;5058485;28;20350;-76
2023/01/07 08:59:29;;;;;;;5.85;3.67;;;11.00;99.90;;;;;;5058286;28;20132;-76
2023/01/07 09:01:55;;;;;;;6.03;4.38;;;11.00;99.90;;;;;;5058100;28;20126;-76
2023/01/07 09:04:20;;;;;;;4.78;4.07;;;11.00;99.90;;;;;;5076533;28;20126;-76
2023/01/07 09:06:46;;;;;;;3.72;3.42;;;11.00;99.90;;;;;;5076709;28;20044;-77
2023/01/07 09:09:15;;;;;;;4.15;3.25;;;10.90;99.90;;;;;;5075605;28;20416;-76
2023/01/07 09:11:41;;;;;;;4.70;3.50;;;10.90;99.90;;;;;;5075388;28;20477;-76
2023/01/07 09:14:07;;;;;;;5.05;3.40;;;10.80;99.90;;;;;;5076558;28;20124;-76
2023/01/07 09:16:33;;;;;;;5.03;3.67;;;10.80;99.90;;;;;;5075564;28;20084;-76
2023/01/07 09:18:58;;;;;;;5.97;3.70;;;10.80;99.90;;;;;;5075485;28;20044;-77
2023/01/07 09:21:24;;;;;;;5.32;3.33;;;10.80;99.90;;;;;;5075623;28;20229;-77
2023/01/07 09:23:50;;;;;;;4.43;3.78;;;10.80;99.90;;;;;;5057962;28;20047;-76
2023/01/07 09:26:16;;;;;;;4.18;3.45;;;10.80;99.90;;;;;;5075327;28;20082;-77
2023/01/07 09:28:42;;;;;;;5.55;3.67;;;10.80;99.90;;;;;;5075330;28;20049;-77
2023/01/07 09:31:08;;;;;;;3.92;3.53;;;10.80;99.90;;;;;;5075192;28;20109;-77
2023/01/07 09:33:33;;;;;;;4.05;3.17;;;10.80;99.90;;;;;;5076074;28;20460;-77
2023/01/07 09:35:59;;;;;;;6.03;3.65;;;10.80;99.90;;;;;;5075291;28;20052;-76
2023/01/07 09:38:28;;;;;;;5.25;4.10;;;10.80;99.90;;;;;;5075536;28;20454;-77
2023/01/07 09:40:56;;;;;;;5.82;4.00;;;10.80;99.90;;;;;;5057850;28;20127;-77
2023/01/07 09:43:41;;;;;;;6.82;3.63;;;10.80;99.90;;;;;;5058073;28;20348;-76
2023/01/07 09:46:09;;;;;;;4.82;3.55;;;10.80;99.90;;;;;;5075718;28;20388;-75
2023/01/07 09:48:40;;;;;;;4.32;3.15;;;10.70;99.90;;;;;;5074855;28;20051;-75
2023/01/07 09:51:20;;;;;;;4.43;3.83;;;10.70;99.90;;;;;;5074208;28;20040;-76
2023/01/07 09:53:53;;;;;;;4.65;3.47;;;10.70;99.90;;;;;;5057518;28;20052;-76
2023/01/07 09:56:39;;;;;;;4.13;3.17;;;10.70;99.90;;;;;;5075178;28;20457;-76
2023/01/07 09:59:06;;;;;;;3.97;3.67;;;10.70;99.90;;;;;;5074123;28;20512;-76
2023/01/07 10:01:53;;;;;;;3.60;3.00;;;10.70;99.90;;;;;;5075411;28;20047;-76
2023/01/07 10:04:22;;;;;;;3.90;2.97;;;10.70;99.90;;;;;;5074508;28;20131;-76
2023/01/07 10:07:17;;;;;;;3.85;3.45;;;10.70;99.90;;;;;;5056512;28;20041;-76
2023/01/07 10:09:42;;;;;;;8.00;3.33;;;10.80;99.90;;;;;;5056456;28;20044;-76
2023/01/07 10:12:14;;;;;;;4.22;3.20;;;10.80;99.90;;;;;;5074232;28;20132;-76
2023/01/07 10:14:55;;;;;;;3.85;3.45;;;10.80;99.90;;;;;;5057376;28;20048;-76
2023/01/07 10:17:40;;;;;;;5.72;3.25;;;10.80;99.90;;;;;;5056942;28;20048;-75
2023/01/07 10:20:25;;;;;;;4.30;3.90;;;10.80;99.90;;;;;;5073788;28;20500;-76
2023/01/07 10:22:59;;;;;;;3.50;2.78;;;10.80;99.90;;;;;;5074690;28;20090;-76
2023/01/07 10:25:33;;;;;;;4.10;2.63;;;10.80;99.90;;;;;;5074401;28;20047;-75
2023/01/07 10:28:05;;;;;;;4.72;2.90;;;10.80;99.90;;;;;;5056986;28;20044;-76
2023/01/07 10:30:39;;;;;;;3.38;2.78;;;10.80;99.90;;;;;;5074508;28;20473;-76
2023/01/07 10:33:25;;;;;;;;;;;10.80;99.90;;;;;;5074499;28;20060;-76
2023/01/07 10:36:17;;;;;;;6.38;2.70;;;10.80;99.90;;;;;;5074172;28;20019;-76
2023/01/07 10:38:52;;;;;;;2.00;1.90;;;10.80;99.90;;;;;;5052670;28;20389;-76
2023/01/07 10:41:28;;;;;;;4.22;3.72;;;10.90;99.90;;;;;;5074369;28;20148;-76
2023/01/07 10:44:24;;;;;;;2.97;2.40;;;10.90;99.90;;;;;;5040370;28;20056;-76
2023/01/07 10:47:35;;;;;;;4.97;3.05;;;11.00;99.90;;;;;;5073906;28;20044;-76
2023/01/07 10:50:31;;;;;;;3.28;2.47;;;11.10;99.90;;;;;;4992408;28;20097;-76
2023/01/07 10:53:21;;;;;;;2.20;2.10;;;11.10;99.90;;;;;;4992838;28;20050;-77
2023/01/07 10:56:16;;;;;;;2.80;2.38;;;11.10;99.90;;;;;;5060474;28;20518;-78
2023/01/07 10:58:45;;;;;;;2.25;2.05;;;11.40;99.90;;;;;;5073892;28;20045;-77
2023/01/07 11:01:39;;;;;;;2.55;1.88;;;11.20;99.90;;;;;;5076398;28;20469;-77
2023/01/07 11:04:14;;;;;;;2.88;2.35;;;11.20;99.90;;;;;;5071395;28;20052;-77
2023/01/07 11:06:48;;;;;;;2.72;2.53;;;11.30;99.90;;;;;;5074065;28;20094;-75
2023/01/07 11:09:21;;;;;;;3.42;2.53;;;11.30;99.90;;;;;;5073739;28;20028;-77
2023/01/07 11:11:49;;;;;;;1.90;1.80;;;11.40;99.90;;;;;;5076030;28;20122;-75
2023/01/07 11:14:21;;;;;;;5.35;2.88;;;11.30;99.90;;;;;;5077980;28;20048;-75
2023/01/07 11:16:51;;;;;;;2.77;2.07;;;11.40;99.90;;;;;;5077847;28;20078;-75
2023/01/07 11:19:17;;;;;;;2.60;2.40;;;11.40;99.90;;;;;;5077746;28;20079;-76
2023/01/07 11:21:47;;;;;;;2.08;1.88;;;11.50;99.90;;;;;;5059645;28;20036;-75
2023/01/07 11:24:34;;;;;;;2.72;2.05;;;11.50;99.90;;;;;;5044211;28;20067;-76
2023/01/07 11:27:13;;;;;;;2.53;2.20;;;11.50;99.90;;;;;;5060165;28;20050;-75
2023/01/07 11:30:12;;;;;;;2.10;1.88;;;11.50;99.90;;;;;;5077318;28;20135;-75
2023/01/07 11:32:39;;;;;;;5.68;2.10;;;11.60;99.90;;;;;;5060487;28;20048;-76
2023/01/07 11:35:21;;;;;;;2.28;1.55;;;11.60;99.90;;;;;;5077043;28;20041;-72
2023/01/07 11:37:48;;;;;;;2.50;2.30;;;11.60;99.90;;;;;;5077106;28;20044;-72
2023/01/07 11:40:14;;;;;;;3.33;2.30;;;11.60;99.90;;;;;;5077029;28;20048;-72
2023/01/07 11:43:14;;;;;;;1.90;1.80;;;11.60;99.90;;;;;;5077710;28;20040;-76
2023/01/07 11:45:55;;;;;;;2.72;1.83;;;11.60;99.90;;;;;;5050708;28;20060;-75
2023/01/07 11:48:33;;;;;;;1.83;1.70;;;11.60;99.90;;;;;;5077637;28;20401;-76
2023/01/07 11:51:01;;;;;;;3.72;1.83;;;11.70;99.90;;;;;;5076981;28;20041;-76
2023/01/07 11:53:45;;;;;;;1.63;1.52;;;11.70;99.90;;;;;;5076981;28;20138;-77
2023/01/07 11:56:23;;;;;;;2.17;1.75;;;11.70;99.90;;;;;;5076966;28;20123;-76
2023/01/07 11:58:51;;;;;;;2.78;1.95;;;11.70;99.90;;;;;;5077079;28;20388;-76
2023/01/07 12:01:19;;;;;;;4.35;2.20;;;11.70;99.90;;;;;;5077451;28;20051;-77
2023/01/07 12:03:51;;;;;;;1.88;1.45;;;11.70;99.90;;;;;;5059125;28;20054;-76
2023/01/07 12:06:27;;;;;;;2.30;1.30;;;11.70;99.90;;;;;;5077007;28;20055;-76
2023/01/07 12:09:01;;;;;;;1.65;1.55;;;11.70;99.90;;;;;;5077544;28;20037;-76
2023/01/07 12:11:45;;;;;;;1.75;1.48;;;11.70;99.90;;;;;;5059291;28;20098;-76
2023/01/07 12:14:23;;;;;;;2.15;1.48;;;11.70;99.90;;;;;;5042746;28;20400;-76
2023/01/07 12:16:50;;;;;;;1.90;1.80;;;11.70;99.90;;;;;;5075218;28;20377;-76
2023/01/07 12:19:45;;;;;;;2.45;2.03;;;11.70;99.90;;;;;;5075715;28;20048;-76
2023/01/07 12:22:19;;;;;;;1.50;1.40;;;11.80;99.90;;;;;;5059669;28;20394;-76
2023/01/07 12:25:17;;;;;;;1.83;1.55;;;11.80;99.90;;;;;;5075398;28;20041;-76
2023/01/07 12:27:57;;;;;;;2.60;1.83;;;11.70;99.90;;;;;;5045031;28;20127;-75
2023/01/07 12:30:23;;;;;;;3.85;1.92;;;11.70;99.90;;;;;;5058340;28;20059;-76
2023/01/07 12:33:35;;;;;;;2.75;2.28;;;11.80;99.90;;;;;;5058434;28;20041;-76
2023/01/07 12:36:12;;;;;;;2.70;1.80;;;11.80;99.90;;;;;;5045787;28;20098;-76
2023/01/07 12:38:54;;;;;;;3.47;1.52;;;11.90;99.90;;;;;;5076883;28;20041;-77
2023/01/07 12:41:27;;;;;;;2.00;1.80;;;11.90;99.90;;;;;;5076900;28;20052;-76
2023/01/07 12:44:11;;;;;;;3.33;1.98;;;11.90;99.90;;;;;;5076173;28;20134;-77
2023/01/07 12:47:12;;;;;;;2.08;1.65;;;11.80;99.90;;;;;;5076787;28;20123;-76
2023/01/07 12:49:46;;;;;;;3.50;2.22;;;11.90;99.90;;;;;;5058801;28;20372;-76
2023/01/07 12:52:23;;;;;;;1.60;1.50;;;11.90;99.90;;;;;;5076229;28;20040;-76
2023/01/07 12:55:02;;;;;;;3.85;1.88;;;11.80;99.90;;;;;;5075925;28;20121;-76
2023/01/07 12:57:34;;;;;;;2.10;1.77;;;11.80;99.90;;;;;;5076334;28;20461;-77
2023/01/07 13:00:19;;;;;;;2.13;1.75;;;11.80;99.90;;;;;;5075982;28;20045;-77
2023/01/07 13:02:50;;;;;;;2.72;1.70;;;11.80;99.90;;;;;;5076344;28;20182;-77